sensor_id;sensor_type;location;lat;lon;timestamp;P1;durP1;ratioP1;P2;durP2;ratioP2
74124;SDS011;62475;52.192;5.396;2023-04-03T00:02:07;2.78;;;0.80;;
74124;SDS011;62475;52.192;5.396;2023-04-03T00:04:32;2.17;;;1.10;;
74124;SDS011;62475;52.192;5.396;2023-04-03T00:06:58;2.22;;;0.80;;
74124;SDS011;62475;52.192;5.396;2023-04-03T00:09:24;5.68;;;1.20;;
74124;SDS011;62475;52.192;5.396;2023-04-03T00:11:50;3.58;;;1.20;;
74124;SDS011;62475;52.192;5.396;2023-04-03T00:14:15;3.13;;;1.45;;
74124;SDS011;62475;52.192;5.396;2023-04-03T00:16:40;3.38;;;1.38;;
74124;SDS011;62475;52.192;5.396;2023-04-03T00:19:05;3.33;;;1.65;;
74124;SDS011;62475;52.192;5.396;2023-04-03T00:21:31;4.43;;;1.67;;
74124;SDS011;62475;52.192;5.396;2023-04-03T00:23:56;4.13;;;2.00;;
74124;SDS011;62475;52.192;5.396;2023-04-03T00:26:21;3.10;;;1.73;;
74124;SDS011;62475;52.192;5.396;2023-04-03T00:28:48;5.10;;;1.70;;
74124;SDS011;62475;52.192;5.396;2023-04-03T00:31:14;4.45;;;1.30;;
74124;SDS011;62475;52.192;5.396;2023-04-03T00:33:41;4.00;;;1.65;;
74124;SDS011;62475;52.192;5.396;2023-04-03T00:36:07;3.33;;;1.65;;
74124;SDS011;62475;52.192;5.396;2023-04-03T00:38:34;4.10;;;1.45;;
74124;SDS011;62475;52.192;5.396;2023-04-03T00:40:59;4.38;;;1.67;;
74124;SDS011;62475;52.192;5.396;2023-04-03T00:43:27;2.20;;;1.00;;
74124;SDS011;62475;52.192;5.396;2023-04-03T00:45:53;2.65;;;1.33;;
74124;SDS011;62475;52.192;5.396;2023-04-03T00:48:21;4.50;;;1.60;;
74124;SDS011;62475;52.192;5.396;2023-04-03T00:50:51;5.47;;;1.45;;
74124;SDS011;62475;52.192;5.396;2023-04-03T00:53:18;4.30;;;1.23;;
74124;SDS011;62475;52.192;5.396;2023-04-03T00:55:50;1.92;;;1.30;;
74124;SDS011;62475;52.192;5.396;2023-04-03T00:58:17;5.38;;;1.42;;
74124;SDS011;62475;52.192;5.396;2023-04-03T01:00:46;5.90;;;1.67;;
74124;SDS011;62475;52.192;5.396;2023-04-03T01:03:18;3.28;;;1.38;;
74124;SDS011;62475;52.192;5.396;2023-04-03T01:05:43;5.38;;;1.30;;
74124;SDS011;62475;52.192;5.396;2023-04-03T01:08:09;4.13;;;1.60;;
74124;SDS011;62475;52.192;5.396;2023-04-03T01:10:35;5.18;;;1.67;;
74124;SDS011;62475;52.192;5.396;2023-04-03T01:13:00;4.38;;;1.20;;
74124;SDS011;62475;52.192;5.396;2023-04-03T01:15:26;3.95;;;1.40;;
74124;SDS011;62475;52.192;5.396;2023-04-03T01:17:59;3.67;;;1.52;;
74124;SDS011;62475;52.192;5.396;2023-04-03T01:20:36;2.72;;;1.20;;
74124;SDS011;62475;52.192;5.396;2023-04-03T01:26:15;3.85;;;0.85;;
74124;SDS011;62475;52.192;5.396;2023-04-03T01:28:42;5.15;;;1.00;;
74124;SDS011;62475;52.192;5.396;2023-04-03T01:34:05;1.95;;;1.00;;
74124;SDS011;62475;52.192;5.396;2023-04-03T01:36:30;2.17;;;1.20;;
74124;SDS011;62475;52.192;5.396;2023-04-03T01:38:57;1.33;;;0.73;;
74124;SDS011;62475;52.192;5.396;2023-04-03T01:41:26;2.00;;;1.00;;
74124;SDS011;62475;52.192;5.396;2023-04-03T01:43:51;2.13;;;0.90;;
74124;SDS011;62475;52.192;5.396;2023-04-03T01:46:18;2.17;;;1.08;;
74124;SDS011;62475;52.192;5.396;2023-04-03T01:48:45;1.75;;;0.88;;
74124;SDS011;62475;52.192;5.396;2023-04-03T01:51:10;4.35;;;1.00;;
74124;SDS011;62475;52.192;5.396;2023-04-03T01:53:35;3.70;;;1.00;;
74124;SDS011;62475;52.192;5.396;2023-04-03T01:56:01;4.20;;;1.17;;
74124;SDS011;62475;52.192;5.396;2023-04-03T01:58:27;3.10;;;1.00;;
74124;SDS011;62475;52.192;5.396;2023-04-03T02:00:52;2.92;;;1.35;;
74124;SDS011;62475;52.192;5.396;2023-04-03T02:03:18;1.42;;;1.10;;
74124;SDS011;62475;52.192;5.396;2023-04-03T02:05:43;1.63;;;0.82;;
74124;SDS011;62475;52.192;5.396;2023-04-03T02:08:08;3.15;;;0.80;;
74124;SDS011;62475;52.192;5.396;2023-04-03T02:10:34;2.88;;;0.98;;
74124;SDS011;62475;52.192;5.396;2023-04-03T02:13:01;3.33;;;1.42;;
74124;SDS011;62475;52.192;5.396;2023-04-03T02:15:26;3.35;;;0.88;;
74124;SDS011;62475;52.192;5.396;2023-04-03T02:17:51;4.38;;;1.08;;
74124;SDS011;62475;52.192;5.396;2023-04-03T02:20:17;2.58;;;1.10;;
74124;SDS011;62475;52.192;5.396;2023-04-03T02:22:43;2.13;;;1.20;;
74124;SDS011;62475;52.192;5.396;2023-04-03T02:25:08;2.97;;;1.10;;
74124;SDS011;62475;52.192;5.396;2023-04-03T02:27:35;5.15;;;1.02;;
74124;SDS011;62475;52.192;5.396;2023-04-03T02:30:01;2.15;;;0.93;;
74124;SDS011;62475;52.192;5.396;2023-04-03T02:32:27;5.00;;;1.30;;
74124;SDS011;62475;52.192;5.396;2023-04-03T02:34:52;1.98;;;1.20;;
74124;SDS011;62475;52.192;5.396;2023-04-03T02:37:17;2.90;;;1.23;;
74124;SDS011;62475;52.192;5.396;2023-04-03T02:39:42;2.78;;;0.70;;
74124;SDS011;62475;52.192;5.396;2023-04-03T02:42:08;2.93;;;0.97;;
74124;SDS011;62475;52.192;5.396;2023-04-03T02:44:33;2.13;;;1.02;;
74124;SDS011;62475;52.192;5.396;2023-04-03T02:46:58;1.65;;;1.02;;
74124;SDS011;62475;52.192;5.396;2023-04-03T02:49:24;0.80;;;0.43;;
74124;SDS011;62475;52.192;5.396;2023-04-03T02:51:49;2.58;;;1.23;;
74124;SDS011;62475;52.192;5.396;2023-04-03T02:54:16;4.40;;;1.50;;
74124;SDS011;62475;52.192;5.396;2023-04-03T02:56:41;3.70;;;1.00;;
74124;SDS011;62475;52.192;5.396;2023-04-03T02:59:06;2.40;;;1.20;;
74124;SDS011;62475;52.192;5.396;2023-04-03T03:01:32;7.60;;;1.42;;
74124;SDS011;62475;52.192;5.396;2023-04-03T03:03:58;3.58;;;1.25;;
74124;SDS011;62475;52.192;5.396;2023-04-03T03:06:25;4.03;;;1.40;;
74124;SDS011;62475;52.192;5.396;2023-04-03T03:08:50;4.07;;;1.20;;
74124;SDS011;62475;52.192;5.396;2023-04-03T03:11:15;5.43;;;1.85;;
74124;SDS011;62475;52.192;5.396;2023-04-03T03:13:41;4.90;;;1.63;;
74124;SDS011;62475;52.192;5.396;2023-04-03T03:16:07;2.80;;;1.40;;
74124;SDS011;62475;52.192;5.396;2023-04-03T03:18:33;5.43;;;1.50;;
74124;SDS011;62475;52.192;5.396;2023-04-03T03:21:00;3.70;;;1.30;;
74124;SDS011;62475;52.192;5.396;2023-04-03T03:23:28;2.47;;;1.23;;
74124;SDS011;62475;52.192;5.396;2023-04-03T03:25:59;3.83;;;1.00;;
74124;SDS011;62475;52.192;5.396;2023-04-03T03:28:29;3.50;;;1.70;;
74124;SDS011;62475;52.192;5.396;2023-04-03T03:30:55;3.65;;;1.40;;
74124;SDS011;62475;52.192;5.396;2023-04-03T03:33:21;2.38;;;1.30;;
74124;SDS011;62475;52.192;5.396;2023-04-03T03:35:47;3.13;;;1.73;;
74124;SDS011;62475;52.192;5.396;2023-04-03T03:38:12;4.95;;;1.48;;
74124;SDS011;62475;52.192;5.396;2023-04-03T03:40:37;2.70;;;1.40;;
74124;SDS011;62475;52.192;5.396;2023-04-03T03:43:03;3.47;;;1.40;;
74124;SDS011;62475;52.192;5.396;2023-04-03T03:45:28;2.30;;;1.58;;
74124;SDS011;62475;52.192;5.396;2023-04-03T03:47:56;5.18;;;1.90;;
74124;SDS011;62475;52.192;5.396;2023-04-03T03:50:21;4.18;;;1.50;;
74124;SDS011;62475;52.192;5.396;2023-04-03T03:52:46;3.05;;;1.60;;
74124;SDS011;62475;52.192;5.396;2023-04-03T03:55:12;4.95;;;1.45;;
74124;SDS011;62475;52.192;5.396;2023-04-03T03:57:37;5.20;;;1.50;;
74124;SDS011;62475;52.192;5.396;2023-04-03T04:00:03;4.63;;;1.77;;
74124;SDS011;62475;52.192;5.396;2023-04-03T04:02:32;6.13;;;1.60;;
74124;SDS011;62475;52.192;5.396;2023-04-03T04:04:57;3.67;;;1.70;;
74124;SDS011;62475;52.192;5.396;2023-04-03T04:07:23;7.50;;;1.83;;
74124;SDS011;62475;52.192;5.396;2023-04-03T04:09:48;7.88;;;1.75;;
74124;SDS011;62475;52.192;5.396;2023-04-03T04:12:14;4.60;;;1.80;;
74124;SDS011;62475;52.192;5.396;2023-04-03T04:14:39;6.72;;;1.80;;
74124;SDS011;62475;52.192;5.396;2023-04-03T04:17:05;3.97;;;1.45;;
74124;SDS011;62475;52.192;5.396;2023-04-03T04:19:30;4.78;;;1.40;;
74124;SDS011;62475;52.192;5.396;2023-04-03T04:21:56;7.82;;;1.95;;
74124;SDS011;62475;52.192;5.396;2023-04-03T04:24:21;9.55;;;1.88;;
74124;SDS011;62475;52.192;5.396;2023-04-03T04:26:47;3.40;;;1.23;;
74124;SDS011;62475;52.192;5.396;2023-04-03T04:29:13;4.68;;;2.10;;
74124;SDS011;62475;52.192;5.396;2023-04-03T04:31:38;4.88;;;1.75;;
74124;SDS011;62475;52.192;5.396;2023-04-03T04:34:04;7.88;;;1.63;;
74124;SDS011;62475;52.192;5.396;2023-04-03T04:36:29;6.78;;;2.05;;
74124;SDS011;62475;52.192;5.396;2023-04-03T04:38:55;6.63;;;1.45;;
74124;SDS011;62475;52.192;5.396;2023-04-03T04:41:20;6.15;;;1.40;;
74124;SDS011;62475;52.192;5.396;2023-04-03T04:43:47;5.53;;;1.60;;
74124;SDS011;62475;52.192;5.396;2023-04-03T04:46:15;6.18;;;2.85;;
74124;SDS011;62475;52.192;5.396;2023-04-03T04:48:40;6.30;;;1.60;;
74124;SDS011;62475;52.192;5.396;2023-04-03T04:51:06;3.28;;;1.17;;
74124;SDS011;62475;52.192;5.396;2023-04-03T04:53:31;5.72;;;1.60;;
74124;SDS011;62475;52.192;5.396;2023-04-03T04:55:57;5.93;;;1.52;;
74124;SDS011;62475;52.192;5.396;2023-04-03T04:58:22;6.65;;;1.88;;
74124;SDS011;62475;52.192;5.396;2023-04-03T05:00:48;6.45;;;1.88;;
74124;SDS011;62475;52.192;5.396;2023-04-03T05:03:13;6.00;;;1.70;;
74124;SDS011;62475;52.192;5.396;2023-04-03T05:05:39;8.43;;;2.13;;
74124;SDS011;62475;52.192;5.396;2023-04-03T05:08:04;5.05;;;1.77;;
74124;SDS011;62475;52.192;5.396;2023-04-03T05:10:30;6.78;;;1.80;;
74124;SDS011;62475;52.192;5.396;2023-04-03T05:12:59;6.80;;;1.55;;
74124;SDS011;62475;52.192;5.396;2023-04-03T05:15:25;1.45;;;1.20;;
74124;SDS011;62475;52.192;5.396;2023-04-03T05:17:50;2.70;;;0.82;;
74124;SDS011;62475;52.192;5.396;2023-04-03T05:20:17;5.85;;;2.00;;
74124;SDS011;62475;52.192;5.396;2023-04-03T05:22:42;2.10;;;1.30;;
74124;SDS011;62475;52.192;5.396;2023-04-03T05:25:08;5.25;;;1.40;;
74124;SDS011;62475;52.192;5.396;2023-04-03T05:27:34;4.85;;;1.23;;
74124;SDS011;62475;52.192;5.396;2023-04-03T05:29:59;1.80;;;1.23;;
74124;SDS011;62475;52.192;5.396;2023-04-03T05:32:25;3.03;;;1.08;;
74124;SDS011;62475;52.192;5.396;2023-04-03T05:34:52;3.22;;;1.50;;
74124;SDS011;62475;52.192;5.396;2023-04-03T05:37:18;5.38;;;1.90;;
74124;SDS011;62475;52.192;5.396;2023-04-03T05:39:46;9.25;;;1.90;;
74124;SDS011;62475;52.192;5.396;2023-04-03T05:42:12;6.67;;;1.80;;
74124;SDS011;62475;52.192;5.396;2023-04-03T05:44:38;4.80;;;1.73;;
74124;SDS011;62475;52.192;5.396;2023-04-03T05:47:05;9.55;;;2.10;;
74124;SDS011;62475;52.192;5.396;2023-04-03T05:49:31;4.13;;;1.45;;
74124;SDS011;62475;52.192;5.396;2023-04-03T05:51:56;4.40;;;2.00;;
74124;SDS011;62475;52.192;5.396;2023-04-03T05:54:23;4.85;;;1.75;;
74124;SDS011;62475;52.192;5.396;2023-04-03T05:56:52;5.82;;;1.98;;
74124;SDS011;62475;52.192;5.396;2023-04-03T05:59:18;4.72;;;1.38;;
74124;SDS011;62475;52.192;5.396;2023-04-03T06:01:45;7.07;;;1.63;;
74124;SDS011;62475;52.192;5.396;2023-04-03T06:04:11;4.47;;;1.60;;
74124;SDS011;62475;52.192;5.396;2023-04-03T06:06:44;4.35;;;1.38;;
74124;SDS011;62475;52.192;5.396;2023-04-03T06:09:17;2.97;;;1.30;;
74124;SDS011;62475;52.192;5.396;2023-04-03T06:11:44;5.03;;;1.73;;
74124;SDS011;62475;52.192;5.396;2023-04-03T06:14:09;5.00;;;1.17;;
74124;SDS011;62475;52.192;5.396;2023-04-03T06:16:35;5.45;;;1.88;;
74124;SDS011;62475;52.192;5.396;2023-04-03T06:19:00;4.47;;;1.50;;
74124;SDS011;62475;52.192;5.396;2023-04-03T06:21:27;3.35;;;1.15;;
74124;SDS011;62475;52.192;5.396;2023-04-03T06:23:52;5.00;;;1.42;;
74124;SDS011;62475;52.192;5.396;2023-04-03T06:26:18;4.82;;;1.38;;
74124;SDS011;62475;52.192;5.396;2023-04-03T06:28:43;3.15;;;1.08;;
74124;SDS011;62475;52.192;5.396;2023-04-03T06:31:09;5.82;;;1.88;;
74124;SDS011;62475;52.192;5.396;2023-04-03T06:33:34;4.90;;;1.73;;
74124;SDS011;62475;52.192;5.396;2023-04-03T06:36:03;3.92;;;0.90;;
74124;SDS011;62475;52.192;5.396;2023-04-03T06:38:29;4.05;;;1.45;;
74124;SDS011;62475;52.192;5.396;2023-04-03T06:40:55;3.47;;;1.33;;
74124;SDS011;62475;52.192;5.396;2023-04-03T06:43:20;1.48;;;1.23;;
74124;SDS011;62475;52.192;5.396;2023-04-03T06:45:46;3.25;;;1.48;;
74124;SDS011;62475;52.192;5.396;2023-04-03T06:48:12;4.13;;;1.13;;
74124;SDS011;62475;52.192;5.396;2023-04-03T06:50:37;3.95;;;1.17;;
74124;SDS011;62475;52.192;5.396;2023-04-03T06:53:03;4.20;;;1.50;;
74124;SDS011;62475;52.192;5.396;2023-04-03T06:55:29;4.25;;;1.60;;
74124;SDS011;62475;52.192;5.396;2023-04-03T06:57:54;4.70;;;1.73;;
74124;SDS011;62475;52.192;5.396;2023-04-03T07:00:20;6.50;;;1.65;;
74124;SDS011;62475;52.192;5.396;2023-04-03T07:02:46;3.70;;;1.25;;
74124;SDS011;62475;52.192;5.396;2023-04-03T07:05:11;1.75;;;0.73;;
74124;SDS011;62475;52.192;5.396;2023-04-03T07:07:37;5.55;;;1.27;;
74124;SDS011;62475;52.192;5.396;2023-04-03T07:10:03;2.45;;;1.10;;
74124;SDS011;62475;52.192;5.396;2023-04-03T07:12:32;1.88;;;1.10;;
74124;SDS011;62475;52.192;5.396;2023-04-03T07:14:57;4.93;;;1.63;;
74124;SDS011;62475;52.192;5.396;2023-04-03T07:17:24;8.45;;;0.93;;
74124;SDS011;62475;52.192;5.396;2023-04-03T07:19:50;2.67;;;0.85;;
74124;SDS011;62475;52.192;5.396;2023-04-03T07:22:16;3.13;;;0.95;;
74124;SDS011;62475;52.192;5.396;2023-04-03T07:24:42;6.05;;;2.00;;
74124;SDS011;62475;52.192;5.396;2023-04-03T07:27:07;4.30;;;1.30;;
74124;SDS011;62475;52.192;5.396;2023-04-03T07:29:33;3.38;;;1.27;;
74124;SDS011;62475;52.192;5.396;2023-04-03T07:31:59;2.75;;;1.15;;
74124;SDS011;62475;52.192;5.396;2023-04-03T07:34:24;2.13;;;0.90;;
74124;SDS011;62475;52.192;5.396;2023-04-03T07:36:50;1.80;;;1.30;;
74124;SDS011;62475;52.192;5.396;2023-04-03T07:39:15;3.25;;;1.10;;
74124;SDS011;62475;52.192;5.396;2023-04-03T07:41:42;3.40;;;0.90;;
74124;SDS011;62475;52.192;5.396;2023-04-03T07:44:08;5.20;;;1.10;;
74124;SDS011;62475;52.192;5.396;2023-04-03T07:46:34;1.98;;;0.80;;
74124;SDS011;62475;52.192;5.396;2023-04-03T07:49:00;2.03;;;1.23;;
74124;SDS011;62475;52.192;5.396;2023-04-03T07:51:25;2.95;;;1.02;;
74124;SDS011;62475;52.192;5.396;2023-04-03T07:53:51;4.55;;;1.13;;
74124;SDS011;62475;52.192;5.396;2023-04-03T07:56:17;3.00;;;1.08;;
74124;SDS011;62475;52.192;5.396;2023-04-03T07:58:42;5.85;;;1.33;;
74124;SDS011;62475;52.192;5.396;2023-04-03T08:01:08;2.85;;;1.00;;
74124;SDS011;62475;52.192;5.396;2023-04-03T08:03:33;2.38;;;0.82;;
74124;SDS011;62475;52.192;5.396;2023-04-03T08:06:02;1.85;;;1.00;;
74124;SDS011;62475;52.192;5.396;2023-04-03T08:08:30;1.73;;;0.70;;
74124;SDS011;62475;52.192;5.396;2023-04-03T08:10:57;1.23;;;0.63;;
74124;SDS011;62475;52.192;5.396;2023-04-03T08:13:25;1.80;;;1.02;;
74124;SDS011;62475;52.192;5.396;2023-04-03T08:15:51;4.55;;;1.35;;
74124;SDS011;62475;52.192;5.396;2023-04-03T08:18:17;4.70;;;1.05;;
74124;SDS011;62475;52.192;5.396;2023-04-03T08:20:46;2.50;;;1.20;;
74124;SDS011;62475;52.192;5.396;2023-04-03T08:23:12;2.08;;;0.60;;
74124;SDS011;62475;52.192;5.396;2023-04-03T08:25:40;2.03;;;0.73;;
74124;SDS011;62475;52.192;5.396;2023-04-03T08:30:32;0.90;;;0.43;;
74124;SDS011;62475;52.192;5.396;2023-04-03T08:33:00;1.63;;;0.80;;
74124;SDS011;62475;52.192;5.396;2023-04-03T08:35:26;2.75;;;0.85;;
74124;SDS011;62475;52.192;5.396;2023-04-03T08:37:52;3.15;;;0.80;;
74124;SDS011;62475;52.192;5.396;2023-04-03T08:40:17;2.30;;;0.75;;
74124;SDS011;62475;52.192;5.396;2023-04-03T08:45:51;2.85;;;0.70;;
74124;SDS011;62475;52.192;5.396;2023-04-03T08:48:23;5.53;;;0.60;;
74124;SDS011;62475;52.192;5.396;2023-04-03T08:50:56;0.85;;;0.63;;
74124;SDS011;62475;52.192;5.396;2023-04-03T08:53:32;0.65;;;0.40;;
74124;SDS011;62475;52.192;5.396;2023-04-03T08:56:08;4.18;;;0.50;;
74124;SDS011;62475;52.192;5.396;2023-04-03T08:58:46;1.27;;;0.52;;
74124;SDS011;62475;52.192;5.396;2023-04-03T09:01:17;1.20;;;0.52;;
74124;SDS011;62475;52.192;5.396;2023-04-03T09:03:48;0.60;;;0.40;;
74124;SDS011;62475;52.192;5.396;2023-04-03T09:06:14;2.70;;;0.63;;
74124;SDS011;62475;52.192;5.396;2023-04-03T09:11:48;0.40;;;0.30;;
74124;SDS011;62475;52.192;5.396;2023-04-03T09:17:36;0.90;;;0.30;;
74124;SDS011;62475;52.192;5.396;2023-04-03T09:20:30;1.08;;;0.40;;
74124;SDS011;62475;52.192;5.396;2023-04-03T09:23:28;2.75;;;0.60;;
74124;SDS011;62475;52.192;5.396;2023-04-03T09:26:02;0.73;;;0.30;;
74124;SDS011;62475;52.192;5.396;2023-04-03T09:28:32;1.38;;;0.50;;
74124;SDS011;62475;52.192;5.396;2023-04-03T09:31:01;1.98;;;0.20;;
74124;SDS011;62475;52.192;5.396;2023-04-03T09:33:29;3.05;;;0.60;;
74124;SDS011;62475;52.192;5.396;2023-04-03T09:35:55;2.95;;;0.20;;
74124;SDS011;62475;52.192;5.396;2023-04-03T09:38:21;2.50;;;0.32;;
74124;SDS011;62475;52.192;5.396;2023-04-03T09:40:50;0.32;;;0.20;;
74124;SDS011;62475;52.192;5.396;2023-04-03T09:43:31;0.80;;;0.50;;
74124;SDS011;62475;52.192;5.396;2023-04-03T09:46:18;1.00;;;0.30;;
74124;SDS011;62475;52.192;5.396;2023-04-03T09:49:01;1.05;;;0.30;;
74124;SDS011;62475;52.192;5.396;2023-04-03T09:51:30;0.65;;;0.20;;
74124;SDS011;62475;52.192;5.396;2023-04-03T09:53:58;0.73;;;0.35;;
74124;SDS011;62475;52.192;5.396;2023-04-03T09:56:25;1.48;;;0.30;;
74124;SDS011;62475;52.192;5.396;2023-04-03T10:01:32;1.38;;;0.50;;
74124;SDS011;62475;52.192;5.396;2023-04-03T10:06:40;0.40;;;0.20;;
74124;SDS011;62475;52.192;5.396;2023-04-03T10:09:24;0.52;;;0.20;;
74124;SDS011;62475;52.192;5.396;2023-04-03T10:12:10;2.72;;;0.35;;
74124;SDS011;62475;52.192;5.396;2023-04-03T10:14:56;1.15;;;0.22;;
74124;SDS011;62475;52.192;5.396;2023-04-03T10:18:26;0.50;;;0.30;;
74124;SDS011;62475;52.192;5.396;2023-04-03T10:20:33;0.50;;;0.22;;
74124;SDS011;62475;52.192;5.396;2023-04-03T10:36:34;1.58;;;0.30;;
74124;SDS011;62475;52.192;5.396;2023-04-03T10:44:51;2.63;;;0.30;;
74124;SDS011;62475;52.192;5.396;2023-04-03T10:53:03;0.40;;;0.20;;
74124;SDS011;62475;52.192;5.396;2023-04-03T10:56:02;2.00;;;0.30;;
74124;SDS011;62475;52.192;5.396;2023-04-03T11:01:48;0.30;;;0.20;;
74124;SDS011;62475;52.192;5.396;2023-04-03T11:04:19;0.50;;;0.30;;
74124;SDS011;62475;52.192;5.396;2023-04-03T11:06:48;0.32;;;0.20;;
74124;SDS011;62475;52.192;5.396;2023-04-03T11:12:09;3.28;;;0.25;;
74124;SDS011;62475;52.192;5.396;2023-04-03T11:14:39;1.63;;;0.38;;
74124;SDS011;62475;52.192;5.396;2023-04-03T11:27:58;0.43;;;0.20;;
74124;SDS011;62475;52.192;5.396;2023-04-03T11:36:24;0.63;;;0.30;;
74124;SDS011;62475;52.192;5.396;2023-04-03T11:38:52;0.80;;;0.25;;
74124;SDS011;62475;52.192;5.396;2023-04-03T11:41:25;0.90;;;0.38;;
74124;SDS011;62475;52.192;5.396;2023-04-03T11:44:00;1.13;;;0.30;;
74124;SDS011;62475;52.192;5.396;2023-04-03T11:46:55;2.67;;;0.65;;
74124;SDS011;62475;52.192;5.396;2023-04-03T12:13:35;1.20;;;0.45;;
74124;SDS011;62475;52.192;5.396;2023-04-03T12:16:23;1.08;;;0.40;;
74124;SDS011;62475;52.192;5.396;2023-04-03T12:26:32;2.90;;;0.55;;
74124;SDS011;62475;52.192;5.396;2023-04-03T12:32:34;1.50;;;0.45;;
74124;SDS011;62475;52.192;5.396;2023-04-03T12:39:54;2.33;;;0.60;;
74124;SDS011;62475;52.192;5.396;2023-04-03T12:45:21;1.33;;;0.52;;
74124;SDS011;62475;52.192;5.396;2023-04-03T12:47:52;0.43;;;0.30;;
74124;SDS011;62475;52.192;5.396;2023-04-03T12:52:54;3.25;;;0.55;;
74124;SDS011;62475;52.192;5.396;2023-04-03T12:55:24;2.47;;;0.60;;
74124;SDS011;62475;52.192;5.396;2023-04-03T12:57:51;1.60;;;0.32;;
74124;SDS011;62475;52.192;5.396;2023-04-03T13:00:31;2.25;;;0.57;;
74124;SDS011;62475;52.192;5.396;2023-04-03T13:02:59;0.93;;;0.22;;
74124;SDS011;62475;52.192;5.396;2023-04-03T13:05:27;3.22;;;0.60;;
74124;SDS011;62475;52.192;5.396;2023-04-03T13:07:55;1.33;;;0.40;;
74124;SDS011;62475;52.192;5.396;2023-04-03T13:10:25;1.73;;;0.40;;
74124;SDS011;62475;52.192;5.396;2023-04-03T13:12:55;0.30;;;0.30;;
74124;SDS011;62475;52.192;5.396;2023-04-03T13:15:26;1.45;;;0.60;;
74124;SDS011;62475;52.192;5.396;2023-04-03T13:18:20;2.17;;;0.70;;
74124;SDS011;62475;52.192;5.396;2023-04-03T13:21:01;1.48;;;0.60;;
74124;SDS011;62475;52.192;5.396;2023-04-03T13:23:27;1.42;;;0.60;;
74124;SDS011;62475;52.192;5.396;2023-04-03T13:25:56;2.00;;;0.43;;
74124;SDS011;62475;52.192;5.396;2023-04-03T13:28:25;2.22;;;0.55;;
74124;SDS011;62475;52.192;5.396;2023-04-03T13:33:21;0.47;;;0.30;;
74124;SDS011;62475;52.192;5.396;2023-04-03T13:35:56;1.27;;;0.40;;
74124;SDS011;62475;52.192;5.396;2023-04-03T13:38:36;1.15;;;0.50;;
74124;SDS011;62475;52.192;5.396;2023-04-03T13:41:04;1.08;;;0.60;;
74124;SDS011;62475;52.192;5.396;2023-04-03T13:43:48;1.73;;;0.55;;
74124;SDS011;62475;52.192;5.396;2023-04-03T13:48:45;0.88;;;0.47;;
74124;SDS011;62475;52.192;5.396;2023-04-03T13:53:47;2.53;;;0.90;;
74124;SDS011;62475;52.192;5.396;2023-04-03T13:56:20;2.25;;;0.65;;
74124;SDS011;62475;52.192;5.396;2023-04-03T13:59:06;4.03;;;0.70;;
74124;SDS011;62475;52.192;5.396;2023-04-03T14:04:32;1.70;;;0.52;;
74124;SDS011;62475;52.192;5.396;2023-04-03T14:07:11;1.83;;;0.40;;
74124;SDS011;62475;52.192;5.396;2023-04-03T14:09:37;2.30;;;0.63;;
74124;SDS011;62475;52.192;5.396;2023-04-03T14:12:08;1.33;;;0.70;;
74124;SDS011;62475;52.192;5.396;2023-04-03T14:14:46;2.22;;;0.52;;
74124;SDS011;62475;52.192;5.396;2023-04-03T14:17:19;1.40;;;0.57;;
74124;SDS011;62475;52.192;5.396;2023-04-03T14:19:47;3.90;;;1.23;;
74124;SDS011;62475;52.192;5.396;2023-04-03T14:22:19;1.65;;;0.47;;
74124;SDS011;62475;52.192;5.396;2023-04-03T14:29:44;2.97;;;0.90;;
74124;SDS011;62475;52.192;5.396;2023-04-03T14:32:11;2.40;;;0.60;;
74124;SDS011;62475;52.192;5.396;2023-04-03T14:34:38;1.80;;;0.73;;
74124;SDS011;62475;52.192;5.396;2023-04-03T14:37:04;1.83;;;0.60;;
74124;SDS011;62475;52.192;5.396;2023-04-03T14:39:34;1.65;;;1.00;;
74124;SDS011;62475;52.192;5.396;2023-04-03T14:41:59;2.35;;;0.70;;
74124;SDS011;62475;52.192;5.396;2023-04-03T14:44:25;1.20;;;0.70;;
74124;SDS011;62475;52.192;5.396;2023-04-03T14:46:52;1.98;;;0.40;;
74124;SDS011;62475;52.192;5.396;2023-04-03T14:49:22;2.40;;;0.70;;
74124;SDS011;62475;52.192;5.396;2023-04-03T14:51:52;2.45;;;0.50;;
74124;SDS011;62475;52.192;5.396;2023-04-03T14:54:18;2.75;;;0.63;;
74124;SDS011;62475;52.192;5.396;2023-04-03T14:56:51;1.30;;;0.60;;
74124;SDS011;62475;52.192;5.396;2023-04-03T14:59:18;2.10;;;0.50;;
74124;SDS011;62475;52.192;5.396;2023-04-03T15:01:45;1.58;;;0.90;;
74124;SDS011;62475;52.192;5.396;2023-04-03T15:04:14;1.75;;;0.68;;
74124;SDS011;62475;52.192;5.396;2023-04-03T15:06:41;5.18;;;0.70;;
74124;SDS011;62475;52.192;5.396;2023-04-03T15:09:26;1.48;;;0.60;;
74124;SDS011;62475;52.192;5.396;2023-04-03T15:11:53;1.15;;;0.60;;
74124;SDS011;62475;52.192;5.396;2023-04-03T15:14:20;2.60;;;0.77;;
74124;SDS011;62475;52.192;5.396;2023-04-03T15:16:46;0.82;;;0.50;;
74124;SDS011;62475;52.192;5.396;2023-04-03T15:19:12;2.13;;;0.80;;
74124;SDS011;62475;52.192;5.396;2023-04-03T15:21:39;1.52;;;0.70;;
74124;SDS011;62475;52.192;5.396;2023-04-03T15:24:08;3.05;;;0.90;;
74124;SDS011;62475;52.192;5.396;2023-04-03T15:26:34;4.20;;;0.60;;
74124;SDS011;62475;52.192;5.396;2023-04-03T15:29:00;1.88;;;0.70;;
74124;SDS011;62475;52.192;5.396;2023-04-03T15:31:26;0.95;;;0.45;;
74124;SDS011;62475;52.192;5.396;2023-04-03T15:33:52;6.38;;;1.02;;
74124;SDS011;62475;52.192;5.396;2023-04-03T15:36:17;2.33;;;0.80;;
74124;SDS011;62475;52.192;5.396;2023-04-03T15:38:43;1.08;;;0.40;;
74124;SDS011;62475;52.192;5.396;2023-04-03T15:41:11;3.47;;;0.77;;
74124;SDS011;62475;52.192;5.396;2023-04-03T15:43:40;2.13;;;0.60;;
74124;SDS011;62475;52.192;5.396;2023-04-03T15:46:11;0.63;;;0.55;;
74124;SDS011;62475;52.192;5.396;2023-04-03T15:48:38;2.15;;;0.57;;
74124;SDS011;62475;52.192;5.396;2023-04-03T15:51:04;3.28;;;0.65;;
74124;SDS011;62475;52.192;5.396;2023-04-03T15:53:30;3.25;;;1.20;;
74124;SDS011;62475;52.192;5.396;2023-04-03T15:55:56;1.77;;;0.57;;
74124;SDS011;62475;52.192;5.396;2023-04-03T15:58:23;2.17;;;0.73;;
74124;SDS011;62475;52.192;5.396;2023-04-03T16:00:50;4.70;;;1.20;;
74124;SDS011;62475;52.192;5.396;2023-04-03T16:03:17;1.55;;;0.60;;
74124;SDS011;62475;52.192;5.396;2023-04-03T16:05:44;3.75;;;1.17;;
74124;SDS011;62475;52.192;5.396;2023-04-03T16:08:10;2.03;;;0.70;;
74124;SDS011;62475;52.192;5.396;2023-04-03T16:10:37;3.05;;;1.08;;
74124;SDS011;62475;52.192;5.396;2023-04-03T16:13:04;1.88;;;0.70;;
74124;SDS011;62475;52.192;5.396;2023-04-03T16:15:29;1.77;;;0.70;;
74124;SDS011;62475;52.192;5.396;2023-04-03T16:17:55;2.50;;;0.82;;
74124;SDS011;62475;52.192;5.396;2023-04-03T16:20:25;3.42;;;1.17;;
74124;SDS011;62475;52.192;5.396;2023-04-03T16:22:51;1.48;;;0.60;;
74124;SDS011;62475;52.192;5.396;2023-04-03T16:25:19;3.17;;;0.52;;
74124;SDS011;62475;52.192;5.396;2023-04-03T16:27:45;2.45;;;0.50;;
74124;SDS011;62475;52.192;5.396;2023-04-03T16:30:10;1.45;;;0.88;;
74124;SDS011;62475;52.192;5.396;2023-04-03T16:32:36;1.77;;;0.70;;
74124;SDS011;62475;52.192;5.396;2023-04-03T16:35:03;2.85;;;0.60;;
74124;SDS011;62475;52.192;5.396;2023-04-03T16:37:29;1.55;;;0.63;;
74124;SDS011;62475;52.192;5.396;2023-04-03T16:39:55;2.60;;;0.60;;
74124;SDS011;62475;52.192;5.396;2023-04-03T16:42:20;1.42;;;0.60;;
74124;SDS011;62475;52.192;5.396;2023-04-03T16:44:45;3.50;;;0.80;;
74124;SDS011;62475;52.192;5.396;2023-04-03T16:47:12;1.67;;;0.60;;
74124;SDS011;62475;52.192;5.396;2023-04-03T16:49:38;5.10;;;0.70;;
74124;SDS011;62475;52.192;5.396;2023-04-03T16:52:04;1.77;;;0.75;;
74124;SDS011;62475;52.192;5.396;2023-04-03T16:54:30;1.67;;;0.60;;
74124;SDS011;62475;52.192;5.396;2023-04-03T16:56:56;0.73;;;0.60;;
74124;SDS011;62475;52.192;5.396;2023-04-03T16:59:24;2.97;;;0.88;;
74124;SDS011;62475;52.192;5.396;2023-04-03T17:01:49;3.00;;;0.80;;
74124;SDS011;62475;52.192;5.396;2023-04-03T17:04:16;1.35;;;0.73;;
74124;SDS011;62475;52.192;5.396;2023-04-03T17:06:43;2.58;;;0.63;;